Kastel Luksic HR Speed Test Log

Averages  Max Speed    
1 to 25 of 133** for City Kastel Luksic HR
Time
  
  Speed   Provider Size    User ConnectID   TestID  
12/1/19 6:43:54 pm 1.22 Mbps 153 kB/sHrvatski 1.7 MB8177470799740 bUrCuJ8oo 
11/7/19 12:19:41 pm 10.04 Mbps 1.25 MB/sHrvatski 100 MB817747083648 ZLp3hSIbQ 
10/21/19 10:16:51 pm 377 kbps 47 kB/sHrvatski 256 kB854108703028 UfdXdQ5Wn 
10/21/19 10:16:43 pm 1.29 Mbps 161 kB/sHrvatski 1.9 MB854108703028 0RsMcEPHa 
9/20/19 3:16:03 pm 9.15 Mbps 1.14 MB/sVipnet 6.2 MB8643420106694 5o~1Hr2hy 
9/20/19 3:15:54 pm 45.92 Mbps 5.74 MB/sVipnet 78.3 MB8643420106694 HnbbP34LK 
8/31/19 10:22:18 am 137 kbps 17 kB/sVipnet 96 kB8643420102567 qJy_v-ULT 
4/9/19 6:09:10 pm 18.77 Mbps 2.35 MB/sIskon 18.7 MB1294299645649 ~kxcozHN_ 
4/7/19 8:07:49 pm 19.52 Mbps 2.44 MB/sIskon 44.4 MB1294299640789 mcPXV-Ejt 
8/30/18 7:59:42 pm 1.88 Mbps 235 kB/sHrvatski 1.3 MB8541535257109 hs~G0Yxyc 
8/30/18 7:59:34 pm 1.69 Mbps 211 kB/sHrvatski 1.3 MB8541535257109 DfGnSS5Py 
8/30/18 7:40:24 pm 1.7 Mbps 212 kB/sHrvatski 1.3 MB8541535257109 O7oaVeIlb 
8/30/18 7:40:15 pm 1.17 Mbps 147 kB/sHrvatski 1.3 MB8541535257109 P49CZ-id1 
8/30/18 6:59:12 pm 1.69 Mbps 212 kB/sHrvatski 1.3 MB8541535257109 M8DWD2tze 
8/30/18 6:59:03 pm 1.71 Mbps 214 kB/sHrvatski 4 MB8541535257109 7PQ3wVptc 
8/30/18 6:40:11 pm 1.64 Mbps 205 kB/sHrvatski 1.3 MB8541535257109 1GIn4WSgG 
8/30/18 6:40:02 pm 1.84 Mbps 230 kB/sHrvatski 1.3 MB8541535257109 qgDlII_FS 
8/30/18 5:58:44 pm 1.63 Mbps 204 kB/sHrvatski 1.3 MB8541535257109 7XhtKj1uR 
8/30/18 5:58:35 pm 3.52 Mbps 440 kB/sHrvatski 95.1 MB8541535257109 KW1kFV03F 
8/30/18 5:40:29 pm 1.96 Mbps 245 kB/sHrvatski 1.3 MB8541535257109 eLQbCHUiD 
8/30/18 5:40:21 pm 4.37 Mbps 546 kB/sHrvatski 11.9 MB8541535257109 PhYGPE_wz 
8/30/18 5:37:55 pm 1.86 Mbps 232 kB/sHrvatski 1.3 MB8541535257109 LvZkKKH8m 
8/30/18 5:37:46 pm 3.96 Mbps 495 kB/sHrvatski 6.2 MB8541535257109 M0YYWATJF 
8/30/18 4:54:47 pm 1.85 Mbps 232 kB/sHrvatski 1.3 MB8541535257109 bMAmq1ivl 
8/30/18 4:54:39 pm 9.96 Mbps 1.24 MB/sHrvatski 18.3 MB8541535257109 FwKY4ndKG 
  
** Partial Results: The most recent results have been displayed. Results over 50 Mbps are highlighted.
Calculated from graphed results above not entire query.
Displaying Internet Speed Test results for City Kastel Luksic HR

Minimum

Min 1.17 Mbps : 0.14 Mbps

Average

Avg 9.48 Mbps : 2.7 Mbps

Maximum

Max 45.92 Mbps : 10.04 Mbps

Minimum

Min: 1.17 Mbps : 0.14 Mbps |

Average

Avg: 9.48 Mbps : 2.7 Mbps |

Maximum

Max: 45.92 Mbps : 10.04 Mbps